ME04 weather

Ilco Landing Area Seaplane Base
Clayton Lake, Maine, United States

Public forecast

Using degrees Fahrenheit for public forecast. Weather courtesy of forecast.io.

Closest aviation weather report (METAR) to Ilco Landing Area Seaplane Base

Closest report is Presque Isle International Airport, 61.4 nm (113.8 km) E. Retrieved 2020/08/04 00:56 UTC (41 minutes ago):

KPQI 040056Z AUTO 28008KT 10SM FEW044 OVC060 21/19 A2989 RMK AO2 RAB12E26 SLP144 P0000 T02060189

Closest aviation forecast (TAF) to Ilco Landing Area Seaplane Base

Closest forecast is Presque Isle International Airport, 61.4 nm (113.8 km) E. Retrieved 2020-08-04 00:22 UTC (1 hour ago):

TAF KPQI 032320Z 0400/0424 26004KT P6SM BKN040 FM040600 VRB03KT P6SM SCT050 FM041000 VRB03KT 3SM BR SCT050 FM041200 VRB03KT P6SM SCT050 FM042200 18006KT P6SM VCSH BKN050 OVC090